sensor_id;sensor_type;location;lat;lon;timestamp;temperature;humidity
41678;DHT22;27364;49.026;8.712;2023-05-14T00:02:09;11.50;99.90
41678;DHT22;27364;49.026;8.712;2023-05-14T00:04:34;11.50;99.90
41678;DHT22;27364;49.026;8.712;2023-05-14T00:07:00;11.50;99.90
41678;DHT22;27364;49.026;8.712;2023-05-14T00:09:25;11.50;99.90
41678;DHT22;27364;49.026;8.712;2023-05-14T00:11:51;11.50;99.90
41678;DHT22;27364;49.026;8.712;2023-05-14T00:14:17;11.50;99.90
41678;DHT22;27364;49.026;8.712;2023-05-14T00:16:42;11.50;99.90
41678;DHT22;27364;49.026;8.712;2023-05-14T00:19:08;11.50;99.90
41678;DHT22;27364;49.026;8.712;2023-05-14T00:21:33;11.50;99.90
41678;DHT22;27364;49.026;8.712;2023-05-14T00:23:59;11.50;99.90
41678;DHT22;27364;49.026;8.712;2023-05-14T00:26:24;11.50;99.90
41678;DHT22;27364;49.026;8.712;2023-05-14T00:28:50;11.50;99.90
41678;DHT22;27364;49.026;8.712;2023-05-14T00:31:15;11.50;99.90
41678;DHT22;27364;49.026;8.712;2023-05-14T00:33:41;11.50;99.90
41678;DHT22;27364;49.026;8.712;2023-05-14T00:36:06;11.50;99.90
41678;DHT22;27364;49.026;8.712;2023-05-14T00:38:32;11.40;99.90
41678;DHT22;27364;49.026;8.712;2023-05-14T00:40:57;11.50;99.90
41678;DHT22;27364;49.026;8.712;2023-05-14T00:43:23;11.40;99.90
41678;DHT22;27364;49.026;8.712;2023-05-14T00:45:52;11.40;99.90
41678;DHT22;27364;49.026;8.712;2023-05-14T00:48:19;11.40;99.90
41678;DHT22;27364;49.026;8.712;2023-05-14T00:50:44;11.30;99.90
41678;DHT22;27364;49.026;8.712;2023-05-14T00:53:10;11.30;99.90
41678;DHT22;27364;49.026;8.712;2023-05-14T00:55:41;11.30;99.90
41678;DHT22;27364;49.026;8.712;2023-05-14T00:58:08;11.30;99.90
41678;DHT22;27364;49.026;8.712;2023-05-14T01:00:35;11.20;99.90
41678;DHT22;27364;49.026;8.712;2023-05-14T01:03:02;11.20;99.90
41678;DHT22;27364;49.026;8.712;2023-05-14T01:11:21;11.10;99.90
41678;DHT22;27364;49.026;8.712;2023-05-14T01:14:01;11.00;99.90
41678;DHT22;27364;49.026;8.712;2023-05-14T01:16:29;11.00;99.90
41678;DHT22;27364;49.026;8.712;2023-05-14T01:18:58;11.00;99.90
41678;DHT22;27364;49.026;8.712;2023-05-14T01:21:35;10.90;99.90
41678;DHT22;27364;49.026;8.712;2023-05-14T01:24:01;10.90;99.90
41678;DHT22;27364;49.026;8.712;2023-05-14T01:26:27;10.80;99.90
41678;DHT22;27364;49.026;8.712;2023-05-14T01:28:55;10.80;99.90
41678;DHT22;27364;49.026;8.712;2023-05-14T01:31:25;10.70;99.90
41678;DHT22;27364;49.026;8.712;2023-05-14T01:33:53;10.70;99.90
41678;DHT22;27364;49.026;8.712;2023-05-14T01:36:22;10.70;99.90
41678;DHT22;27364;49.026;8.712;2023-05-14T01:38:48;10.60;99.90
41678;DHT22;27364;49.026;8.712;2023-05-14T01:41:15;10.60;99.90
41678;DHT22;27364;49.026;8.712;2023-05-14T01:43:43;10.60;99.90
41678;DHT22;27364;49.026;8.712;2023-05-14T01:46:08;10.60;99.90
41678;DHT22;27364;49.026;8.712;2023-05-14T01:48:34;10.50;99.90
41678;DHT22;27364;49.026;8.712;2023-05-14T01:51:00;10.50;99.90
41678;DHT22;27364;49.026;8.712;2023-05-14T01:53:26;10.50;99.90
41678;DHT22;27364;49.026;8.712;2023-05-14T01:55:52;10.40;99.90
41678;DHT22;27364;49.026;8.712;2023-05-14T01:58:17;10.40;99.90
41678;DHT22;27364;49.026;8.712;2023-05-14T02:00:44;10.30;99.90
41678;DHT22;27364;49.026;8.712;2023-05-14T02:03:09;10.30;99.90
41678;DHT22;27364;49.026;8.712;2023-05-14T02:05:35;10.30;99.90
41678;DHT22;27364;49.026;8.712;2023-05-14T02:08:00;10.20;99.90
41678;DHT22;27364;49.026;8.712;2023-05-14T02:10:26;10.20;99.90
41678;DHT22;27364;49.026;8.712;2023-05-14T02:12:51;10.20;99.90
41678;DHT22;27364;49.026;8.712;2023-05-14T02:15:17;10.00;99.90
41678;DHT22;27364;49.026;8.712;2023-05-14T02:17:42;9.90;99.90
41678;DHT22;27364;49.026;8.712;2023-05-14T02:20:08;9.90;99.90
41678;DHT22;27364;49.026;8.712;2023-05-14T02:22:34;9.90;99.90
41678;DHT22;27364;49.026;8.712;2023-05-14T02:25:00;9.90;99.90
41678;DHT22;27364;49.026;8.712;2023-05-14T02:27:25;9.90;99.90
41678;DHT22;27364;49.026;8.712;2023-05-14T02:29:51;9.90;99.90
41678;DHT22;27364;49.026;8.712;2023-05-14T02:32:17;9.90;99.90
41678;DHT22;27364;49.026;8.712;2023-05-14T02:34:42;9.90;99.90
41678;DHT22;27364;49.026;8.712;2023-05-14T02:37:08;9.90;99.90
41678;DHT22;27364;49.026;8.712;2023-05-14T02:39:33;9.90;99.90
41678;DHT22;27364;49.026;8.712;2023-05-14T02:41:59;9.90;99.90
41678;DHT22;27364;49.026;8.712;2023-05-14T02:44:24;10.00;99.90
41678;DHT22;27364;49.026;8.712;2023-05-14T02:46:50;10.00;99.90
41678;DHT22;27364;49.026;8.712;2023-05-14T02:49:15;10.00;99.90
41678;DHT22;27364;49.026;8.712;2023-05-14T02:51:41;10.00;99.90
41678;DHT22;27364;49.026;8.712;2023-05-14T02:54:06;9.90;99.90
41678;DHT22;27364;49.026;8.712;2023-05-14T02:56:32;9.90;99.90
41678;DHT22;27364;49.026;8.712;2023-05-14T02:58:57;9.90;99.90
41678;DHT22;27364;49.026;8.712;2023-05-14T03:01:23;9.80;99.90
41678;DHT22;27364;49.026;8.712;2023-05-14T03:03:48;9.80;99.90
41678;DHT22;27364;49.026;8.712;2023-05-14T03:06:14;9.70;99.90
41678;DHT22;27364;49.026;8.712;2023-05-14T03:08:39;9.60;99.90
41678;DHT22;27364;49.026;8.712;2023-05-14T03:11:05;9.50;99.90
41678;DHT22;27364;49.026;8.712;2023-05-14T03:13:31;9.60;99.90
41678;DHT22;27364;49.026;8.712;2023-05-14T03:15:56;9.60;99.90
41678;DHT22;27364;49.026;8.712;2023-05-14T03:18:22;9.60;99.90
41678;DHT22;27364;49.026;8.712;2023-05-14T03:20:48;9.60;99.90
41678;DHT22;27364;49.026;8.712;2023-05-14T03:23:13;9.50;99.90
41678;DHT22;27364;49.026;8.712;2023-05-14T03:25:39;9.50;99.90
41678;DHT22;27364;49.026;8.712;2023-05-14T03:28:05;9.50;99.90
41678;DHT22;27364;49.026;8.712;2023-05-14T03:30:31;9.50;99.90
41678;DHT22;27364;49.026;8.712;2023-05-14T03:32:56;9.50;99.90
41678;DHT22;27364;49.026;8.712;2023-05-14T03:35:22;9.50;99.90
41678;DHT22;27364;49.026;8.712;2023-05-14T03:37:47;9.50;99.90
41678;DHT22;27364;49.026;8.712;2023-05-14T03:40:13;9.50;99.90
41678;DHT22;27364;49.026;8.712;2023-05-14T03:42:39;9.40;99.90
41678;DHT22;27364;49.026;8.712;2023-05-14T03:45:05;9.50;99.90
41678;DHT22;27364;49.026;8.712;2023-05-14T03:47:31;9.50;99.90
41678;DHT22;27364;49.026;8.712;2023-05-14T03:49:57;9.50;99.90
41678;DHT22;27364;49.026;8.712;2023-05-14T03:52:22;9.40;99.90
41678;DHT22;27364;49.026;8.712;2023-05-14T03:54:48;9.40;99.90
41678;DHT22;27364;49.026;8.712;2023-05-14T03:57:13;9.40;99.90
41678;DHT22;27364;49.026;8.712;2023-05-14T03:59:39;9.40;99.90
41678;DHT22;27364;49.026;8.712;2023-05-14T04:02:04;9.40;99.90
41678;DHT22;27364;49.026;8.712;2023-05-14T04:04:30;9.30;99.90
41678;DHT22;27364;49.026;8.712;2023-05-14T04:06:55;9.30;99.90
41678;DHT22;27364;49.026;8.712;2023-05-14T04:09:21;9.40;99.90
41678;DHT22;27364;49.026;8.712;2023-05-14T04:11:47;9.40;99.90
41678;DHT22;27364;49.026;8.712;2023-05-14T04:14:13;9.40;99.90
41678;DHT22;27364;49.026;8.712;2023-05-14T04:16:38;9.50;99.90
41678;DHT22;27364;49.026;8.712;2023-05-14T04:19:04;9.50;99.90
41678;DHT22;27364;49.026;8.712;2023-05-14T04:21:30;9.60;99.90
41678;DHT22;27364;49.026;8.712;2023-05-14T04:23:56;9.60;99.90
41678;DHT22;27364;49.026;8.712;2023-05-14T04:26:21;9.60;99.90
41678;DHT22;27364;49.026;8.712;2023-05-14T04:28:47;9.70;99.90
41678;DHT22;27364;49.026;8.712;2023-05-14T04:31:14;9.80;99.90
41678;DHT22;27364;49.026;8.712;2023-05-14T04:33:39;9.80;99.90
41678;DHT22;27364;49.026;8.712;2023-05-14T04:36:05;9.90;99.90
41678;DHT22;27364;49.026;8.712;2023-05-14T04:38:31;10.00;99.90
41678;DHT22;27364;49.026;8.712;2023-05-14T04:40:58;10.00;99.90
41678;DHT22;27364;49.026;8.712;2023-05-14T04:43:23;10.10;99.90
41678;DHT22;27364;49.026;8.712;2023-05-14T04:45:49;10.20;99.90
41678;DHT22;27364;49.026;8.712;2023-05-14T04:48:15;10.20;99.90
41678;DHT22;27364;49.026;8.712;2023-05-14T04:50:41;10.30;99.90
41678;DHT22;27364;49.026;8.712;2023-05-14T04:53:08;10.40;99.90
41678;DHT22;27364;49.026;8.712;2023-05-14T04:55:34;10.50;99.90
41678;DHT22;27364;49.026;8.712;2023-05-14T04:58:00;10.60;99.90
41678;DHT22;27364;49.026;8.712;2023-05-14T05:00:25;10.60;99.90
41678;DHT22;27364;49.026;8.712;2023-05-14T05:02:51;10.70;99.90
41678;DHT22;27364;49.026;8.712;2023-05-14T05:05:16;10.70;99.90
41678;DHT22;27364;49.026;8.712;2023-05-14T05:07:42;10.70;99.90
41678;DHT22;27364;49.026;8.712;2023-05-14T05:10:08;10.80;99.90
41678;DHT22;27364;49.026;8.712;2023-05-14T05:12:33;10.90;99.90
41678;DHT22;27364;49.026;8.712;2023-05-14T05:14:59;11.00;99.90
41678;DHT22;27364;49.026;8.712;2023-05-14T05:17:25;11.10;99.90
41678;DHT22;27364;49.026;8.712;2023-05-14T05:19:50;11.10;99.90
41678;DHT22;27364;49.026;8.712;2023-05-14T05:22:17;11.20;99.90
41678;DHT22;27364;49.026;8.712;2023-05-14T05:24:44;11.30;99.90
41678;DHT22;27364;49.026;8.712;2023-05-14T05:27:10;11.50;99.90
41678;DHT22;27364;49.026;8.712;2023-05-14T05:29:36;11.50;99.90
41678;DHT22;27364;49.026;8.712;2023-05-14T05:32:02;11.60;99.90
41678;DHT22;27364;49.026;8.712;2023-05-14T05:34:28;11.70;99.90
41678;DHT22;27364;49.026;8.712;2023-05-14T05:36:53;11.70;99.90
41678;DHT22;27364;49.026;8.712;2023-05-14T05:39:19;11.80;99.90
41678;DHT22;27364;49.026;8.712;2023-05-14T05:41:44;11.90;99.90
41678;DHT22;27364;49.026;8.712;2023-05-14T05:44:10;11.90;99.90
41678;DHT22;27364;49.026;8.712;2023-05-14T05:46:35;12.00;99.90
41678;DHT22;27364;49.026;8.712;2023-05-14T05:49:01;12.00;99.90
41678;DHT22;27364;49.026;8.712;2023-05-14T05:51:27;12.00;99.90
41678;DHT22;27364;49.026;8.712;2023-05-14T05:53:53;12.10;99.90
41678;DHT22;27364;49.026;8.712;2023-05-14T05:56:18;12.10;99.90
41678;DHT22;27364;49.026;8.712;2023-05-14T05:58:44;12.10;99.90
41678;DHT22;27364;49.026;8.712;2023-05-14T06:01:09;12.20;99.90
41678;DHT22;27364;49.026;8.712;2023-05-14T06:03:35;12.20;99.90
41678;DHT22;27364;49.026;8.712;2023-05-14T06:06:01;12.20;99.90
41678;DHT22;27364;49.026;8.712;2023-05-14T06:08:27;12.20;99.90
41678;DHT22;27364;49.026;8.712;2023-05-14T06:10:52;12.20;99.90
41678;DHT22;27364;49.026;8.712;2023-05-14T06:13:18;12.30;99.90
41678;DHT22;27364;49.026;8.712;2023-05-14T06:15:43;12.30;99.90
41678;DHT22;27364;49.026;8.712;2023-05-14T06:18:09;12.30;99.90
41678;DHT22;27364;49.026;8.712;2023-05-14T06:20:34;12.40;99.90
41678;DHT22;27364;49.026;8.712;2023-05-14T06:23:00;12.40;99.90
41678;DHT22;27364;49.026;8.712;2023-05-14T06:25:26;12.40;99.90
41678;DHT22;27364;49.026;8.712;2023-05-14T06:27:51;12.40;99.90
41678;DHT22;27364;49.026;8.712;2023-05-14T06:30:17;12.50;99.90
41678;DHT22;27364;49.026;8.712;2023-05-14T06:32:42;12.40;99.90
41678;DHT22;27364;49.026;8.712;2023-05-14T06:35:08;12.50;99.90
41678;DHT22;27364;49.026;8.712;2023-05-14T06:37:33;12.50;99.90
41678;DHT22;27364;49.026;8.712;2023-05-14T06:40:00;12.50;99.90
41678;DHT22;27364;49.026;8.712;2023-05-14T06:42:25;12.60;99.90
41678;DHT22;27364;49.026;8.712;2023-05-14T06:44:51;12.60;99.90
41678;DHT22;27364;49.026;8.712;2023-05-14T06:47:16;12.70;99.90
41678;DHT22;27364;49.026;8.712;2023-05-14T06:49:42;12.70;99.90
41678;DHT22;27364;49.026;8.712;2023-05-14T06:52:07;12.70;99.90
41678;DHT22;27364;49.026;8.712;2023-05-14T06:54:33;12.70;99.90
41678;DHT22;27364;49.026;8.712;2023-05-14T06:56:59;12.80;99.90
41678;DHT22;27364;49.026;8.712;2023-05-14T06:59:24;12.80;99.90
41678;DHT22;27364;49.026;8.712;2023-05-14T07:01:50;12.90;99.90
41678;DHT22;27364;49.026;8.712;2023-05-14T07:04:16;12.90;99.90
41678;DHT22;27364;49.026;8.712;2023-05-14T07:06:41;12.90;99.90
41678;DHT22;27364;49.026;8.712;2023-05-14T07:09:07;12.90;99.90
41678;DHT22;27364;49.026;8.712;2023-05-14T07:11:33;12.90;99.90
41678;DHT22;27364;49.026;8.712;2023-05-14T07:13:58;13.00;99.90
41678;DHT22;27364;49.026;8.712;2023-05-14T07:16:25;13.00;99.90
41678;DHT22;27364;49.026;8.712;2023-05-14T07:18:50;13.10;99.90
41678;DHT22;27364;49.026;8.712;2023-05-14T07:21:16;13.20;99.90
41678;DHT22;27364;49.026;8.712;2023-05-14T07:23:41;13.30;99.90
41678;DHT22;27364;49.026;8.712;2023-05-14T07:26:07;13.30;99.90
41678;DHT22;27364;49.026;8.712;2023-05-14T07:28:33;13.30;99.90
41678;DHT22;27364;49.026;8.712;2023-05-14T07:30:59;13.40;99.90
41678;DHT22;27364;49.026;8.712;2023-05-14T07:33:24;13.40;99.90
41678;DHT22;27364;49.026;8.712;2023-05-14T07:35:50;13.40;99.90
41678;DHT22;27364;49.026;8.712;2023-05-14T07:38:18;13.50;99.90
41678;DHT22;27364;49.026;8.712;2023-05-14T07:40:44;13.50;99.90
41678;DHT22;27364;49.026;8.712;2023-05-14T07:43:09;13.50;99.90
41678;DHT22;27364;49.026;8.712;2023-05-14T07:45:36;13.50;99.90
41678;DHT22;27364;49.026;8.712;2023-05-14T07:48:01;13.60;99.90
41678;DHT22;27364;49.026;8.712;2023-05-14T07:50:27;13.70;99.90
41678;DHT22;27364;49.026;8.712;2023-05-14T07:52:52;13.70;99.90
41678;DHT22;27364;49.026;8.712;2023-05-14T07:55:18;13.70;99.90
41678;DHT22;27364;49.026;8.712;2023-05-14T07:57:44;13.80;99.90
41678;DHT22;27364;49.026;8.712;2023-05-14T08:00:10;13.70;99.90
41678;DHT22;27364;49.026;8.712;2023-05-14T08:02:36;13.70;99.90
41678;DHT22;27364;49.026;8.712;2023-05-14T08:05:02;13.80;99.90
41678;DHT22;27364;49.026;8.712;2023-05-14T08:07:28;13.90;99.90
41678;DHT22;27364;49.026;8.712;2023-05-14T08:09:54;14.10;99.90
41678;DHT22;27364;49.026;8.712;2023-05-14T08:12:20;14.20;99.90
41678;DHT22;27364;49.026;8.712;2023-05-14T08:14:45;14.20;99.90
41678;DHT22;27364;49.026;8.712;2023-05-14T08:17:11;14.40;99.90
41678;DHT22;27364;49.026;8.712;2023-05-14T08:19:37;14.60;99.90
41678;DHT22;27364;49.026;8.712;2023-05-14T08:22:02;14.70;99.90
41678;DHT22;27364;49.026;8.712;2023-05-14T08:24:28;14.90;99.90
41678;DHT22;27364;49.026;8.712;2023-05-14T08:26:54;14.80;99.90
41678;DHT22;27364;49.026;8.712;2023-05-14T08:29:20;14.90;99.90
41678;DHT22;27364;49.026;8.712;2023-05-14T08:31:46;14.90;99.90
41678;DHT22;27364;49.026;8.712;2023-05-14T08:34:11;15.00;99.90
41678;DHT22;27364;49.026;8.712;2023-05-14T08:36:40;15.10;99.90
41678;DHT22;27364;49.026;8.712;2023-05-14T08:39:06;15.20;99.90
41678;DHT22;27364;49.026;8.712;2023-05-14T08:41:32;15.40;99.90
41678;DHT22;27364;49.026;8.712;2023-05-14T08:44:13;15.60;99.90
41678;DHT22;27364;49.026;8.712;2023-05-14T08:46:39;15.70;99.90
41678;DHT22;27364;49.026;8.712;2023-05-14T08:49:39;15.90;99.90
41678;DHT22;27364;49.026;8.712;2023-05-14T08:52:08;16.00;99.90
41678;DHT22;27364;49.026;8.712;2023-05-14T08:54:34;16.30;99.90
41678;DHT22;27364;49.026;8.712;2023-05-14T08:56:59;16.40;99.90
41678;DHT22;27364;49.026;8.712;2023-05-14T08:59:25;16.60;99.90
41678;DHT22;27364;49.026;8.712;2023-05-14T09:01:52;16.80;99.90
41678;DHT22;27364;49.026;8.712;2023-05-14T09:04:20;16.80;99.90
41678;DHT22;27364;49.026;8.712;2023-05-14T09:06:49;16.90;99.90
41678;DHT22;27364;49.026;8.712;2023-05-14T09:09:15;17.10;99.90
41678;DHT22;27364;49.026;8.712;2023-05-14T09:11:45;17.30;99.90
41678;DHT22;27364;49.026;8.712;2023-05-14T09:14:11;17.30;99.90
41678;DHT22;27364;49.026;8.712;2023-05-14T09:16:37;17.40;99.90
41678;DHT22;27364;49.026;8.712;2023-05-14T09:19:04;17.60;99.90
41678;DHT22;27364;49.026;8.712;2023-05-14T09:21:31;17.70;99.90
41678;DHT22;27364;49.026;8.712;2023-05-14T09:23:57;17.70;99.90
41678;DHT22;27364;49.026;8.712;2023-05-14T09:26:23;17.80;99.90
41678;DHT22;27364;49.026;8.712;2023-05-14T09:28:57;17.70;99.90
41678;DHT22;27364;49.026;8.712;2023-05-14T09:31:26;17.70;99.90
41678;DHT22;27364;49.026;8.712;2023-05-14T09:33:53;17.80;99.90
41678;DHT22;27364;49.026;8.712;2023-05-14T09:36:19;17.90;99.90
41678;DHT22;27364;49.026;8.712;2023-05-14T09:38:44;17.80;99.90
41678;DHT22;27364;49.026;8.712;2023-05-14T09:41:10;17.90;99.90
41678;DHT22;27364;49.026;8.712;2023-05-14T09:43:35;17.90;99.90
41678;DHT22;27364;49.026;8.712;2023-05-14T09:46:01;17.80;99.90
41678;DHT22;27364;49.026;8.712;2023-05-14T09:48:27;17.80;99.90
41678;DHT22;27364;49.026;8.712;2023-05-14T09:50:53;17.60;99.90
41678;DHT22;27364;49.026;8.712;2023-05-14T09:53:19;17.50;99.90
41678;DHT22;27364;49.026;8.712;2023-05-14T09:55:45;17.50;99.90
41678;DHT22;27364;49.026;8.712;2023-05-14T09:58:11;17.50;99.90
41678;DHT22;27364;49.026;8.712;2023-05-14T10:00:38;17.50;99.90
41678;DHT22;27364;49.026;8.712;2023-05-14T10:03:06;17.40;99.90
41678;DHT22;27364;49.026;8.712;2023-05-14T10:05:34;17.50;99.90
41678;DHT22;27364;49.026;8.712;2023-05-14T10:08:04;17.40;99.90
41678;DHT22;27364;49.026;8.712;2023-05-14T10:10:33;17.30;99.90
41678;DHT22;27364;49.026;8.712;2023-05-14T10:13:03;17.40;99.90
41678;DHT22;27364;49.026;8.712;2023-05-14T10:15:53;17.40;99.90
41678;DHT22;27364;49.026;8.712;2023-05-14T10:18:22;17.30;99.90
41678;DHT22;27364;49.026;8.712;2023-05-14T10:20:56;17.30;99.90
41678;DHT22;27364;49.026;8.712;2023-05-14T10:23:24;17.30;99.90
41678;DHT22;27364;49.026;8.712;2023-05-14T10:25:50;17.30;99.90
41678;DHT22;27364;49.026;8.712;2023-05-14T10:28:16;17.40;99.90
41678;DHT22;27364;49.026;8.712;2023-05-14T10:30:45;17.50;99.90
41678;DHT22;27364;49.026;8.712;2023-05-14T10:33:12;17.40;99.90
41678;DHT22;27364;49.026;8.712;2023-05-14T10:35:59;17.40;99.90
41678;DHT22;27364;49.026;8.712;2023-05-14T10:38:29;17.50;99.90
41678;DHT22;27364;49.026;8.712;2023-05-14T10:41:00;17.60;99.90
41678;DHT22;27364;49.026;8.712;2023-05-14T10:43:27;17.60;99.90
41678;DHT22;27364;49.026;8.712;2023-05-14T10:45:59;17.70;99.90
41678;DHT22;27364;49.026;8.712;2023-05-14T10:48:25;17.80;99.90
41678;DHT22;27364;49.026;8.712;2023-05-14T10:50:52;17.80;99.90
41678;DHT22;27364;49.026;8.712;2023-05-14T10:53:18;17.90;99.90
41678;DHT22;27364;49.026;8.712;2023-05-14T10:55:44;17.90;99.90
41678;DHT22;27364;49.026;8.712;2023-05-14T10:58:10;18.00;99.90
41678;DHT22;27364;49.026;8.712;2023-05-14T11:00:37;18.00;99.90
41678;DHT22;27364;49.026;8.712;2023-05-14T11:03:04;18.00;99.90
41678;DHT22;27364;49.026;8.712;2023-05-14T11:05:30;18.10;99.90
41678;DHT22;27364;49.026;8.712;2023-05-14T11:07:57;18.20;99.90
41678;DHT22;27364;49.026;8.712;2023-05-14T11:10:23;18.30;99.90
41678;DHT22;27364;49.026;8.712;2023-05-14T11:12:55;18.50;99.90
41678;DHT22;27364;49.026;8.712;2023-05-14T11:15:22;18.60;99.90
41678;DHT22;27364;49.026;8.712;2023-05-14T11:17:49;18.60;99.90
41678;DHT22;27364;49.026;8.712;2023-05-14T11:20:15;18.70;99.90
41678;DHT22;27364;49.026;8.712;2023-05-14T11:22:42;18.70;99.90
41678;DHT22;27364;49.026;8.712;2023-05-14T11:25:09;18.70;99.90
41678;DHT22;27364;49.026;8.712;2023-05-14T11:27:38;18.80;99.90
41678;DHT22;27364;49.026;8.712;2023-05-14T11:32:36;18.80;99.90
41678;DHT22;27364;49.026;8.712;2023-05-14T11:35:02;18.90;99.90
41678;DHT22;27364;49.026;8.712;2023-05-14T11:37:29;19.00;99.90
41678;DHT22;27364;49.026;8.712;2023-05-14T11:39:57;19.10;99.90
41678;DHT22;27364;49.026;8.712;2023-05-14T11:42:22;19.20;99.90
41678;DHT22;27364;49.026;8.712;2023-05-14T11:44:51;19.40;99.90
41678;DHT22;27364;49.026;8.712;2023-05-14T11:47:19;19.70;99.90
41678;DHT22;27364;49.026;8.712;2023-05-14T11:49:45;20.20;99.90
41678;DHT22;27364;49.026;8.712;2023-05-14T11:52:11;20.60;99.90
41678;DHT22;27364;49.026;8.712;2023-05-14T11:54:41;20.60;99.00
41678;DHT22;27364;49.026;8.712;2023-05-14T11:57:09;20.90;98.50
41678;DHT22;27364;49.026;8.712;2023-05-14T11:59:35;21.00;98.30
41678;DHT22;27364;49.026;8.712;2023-05-14T12:02:02;20.90;97.10
41678;DHT22;27364;49.026;8.712;2023-05-14T12:04:29;20.80;97.80
41678;DHT22;27364;49.026;8.712;2023-05-14T12:06:57;20.60;96.40
41678;DHT22;27364;49.026;8.712;2023-05-14T12:09:23;20.40;98.30
41678;DHT22;27364;49.026;8.712;2023-05-14T12:11:50;20.20;97.10
41678;DHT22;27364;49.026;8.712;2023-05-14T12:14:21;20.10;97.90
41678;DHT22;27364;49.026;8.712;2023-05-14T12:16:47;19.90;96.90
41678;DHT22;27364;49.026;8.712;2023-05-14T12:19:14;20.20;97.60
41678;DHT22;27364;49.026;8.712;2023-05-14T12:21:42;20.60;96.20
41678;DHT22;27364;49.026;8.712;2023-05-14T12:24:09;20.40;95.30
41678;DHT22;27364;49.026;8.712;2023-05-14T12:26:36;20.10;95.30
41678;DHT22;27364;49.026;8.712;2023-05-14T12:29:04;19.80;95.00
41678;DHT22;27364;49.026;8.712;2023-05-14T12:31:32;19.40;95.50
41678;DHT22;27364;49.026;8.712;2023-05-14T12:33:58;19.40;97.40
41678;DHT22;27364;49.026;8.712;2023-05-14T12:36:24;19.20;97.50
41678;DHT22;27364;49.026;8.712;2023-05-14T12:38:56;19.20;97.60
41678;DHT22;27364;49.026;8.712;2023-05-14T12:41:22;19.10;98.70
41678;DHT22;27364;49.026;8.712;2023-05-14T12:43:47;19.00;97.10
41678;DHT22;27364;49.026;8.712;2023-05-14T12:46:14;18.90;97.50
41678;DHT22;27364;49.026;8.712;2023-05-14T12:48:40;18.80;97.00
41678;DHT22;27364;49.026;8.712;2023-05-14T12:51:06;18.70;97.90
41678;DHT22;27364;49.026;8.712;2023-05-14T12:53:32;18.80;98.10
41678;DHT22;27364;49.026;8.712;2023-05-14T12:55:58;18.80;98.90
41678;DHT22;27364;49.026;8.712;2023-05-14T12:58:23;18.90;98.90
41678;DHT22;27364;49.026;8.712;2023-05-14T13:00:49;19.20;98.60
41678;DHT22;27364;49.026;8.712;2023-05-14T13:03:14;19.60;99.50
41678;DHT22;27364;49.026;8.712;2023-05-14T13:05:40;20.20;99.90
41678;DHT22;27364;49.026;8.712;2023-05-14T13:08:05;20.20;96.10
41678;DHT22;27364;49.026;8.712;2023-05-14T13:10:31;20.60;95.70
41678;DHT22;27364;49.026;8.712;2023-05-14T13:12:56;21.00;95.20
41678;DHT22;27364;49.026;8.712;2023-05-14T13:15:22;21.50;96.90
41678;DHT22;27364;49.026;8.712;2023-05-14T13:17:48;21.80;95.60
41678;DHT22;27364;49.026;8.712;2023-05-14T13:20:14;22.00;93.60
41678;DHT22;27364;49.026;8.712;2023-05-14T13:22:42;21.70;92.00
41678;DHT22;27364;49.026;8.712;2023-05-14T13:25:07;21.60;91.80
41678;DHT22;27364;49.026;8.712;2023-05-14T13:27:33;21.90;89.60
41678;DHT22;27364;49.026;8.712;2023-05-14T13:30:04;22.10;91.10
41678;DHT22;27364;49.026;8.712;2023-05-14T13:32:29;21.90;89.80
41678;DHT22;27364;49.026;8.712;2023-05-14T13:34:55;21.40;90.00
41678;DHT22;27364;49.026;8.712;2023-05-14T13:37:21;21.10;89.50
41678;DHT22;27364;49.026;8.712;2023-05-14T13:39:46;21.00;90.40
41678;DHT22;27364;49.026;8.712;2023-05-14T13:42:12;20.80;88.60
41678;DHT22;27364;49.026;8.712;2023-05-14T13:44:37;20.50;90.40
41678;DHT22;27364;49.026;8.712;2023-05-14T13:47:03;20.50;91.60
41678;DHT22;27364;49.026;8.712;2023-05-14T13:49:29;20.80;90.50
41678;DHT22;27364;49.026;8.712;2023-05-14T13:51:54;21.20;90.60
41678;DHT22;27364;49.026;8.712;2023-05-14T13:54:20;21.80;89.20
41678;DHT22;27364;49.026;8.712;2023-05-14T13:56:46;22.30;85.20
41678;DHT22;27364;49.026;8.712;2023-05-14T13:59:11;22.70;86.20
41678;DHT22;27364;49.026;8.712;2023-05-14T14:01:37;23.10;82.00
41678;DHT22;27364;49.026;8.712;2023-05-14T14:04:02;23.20;83.60
41678;DHT22;27364;49.026;8.712;2023-05-14T14:06:30;23.10;82.10
41678;DHT22;27364;49.026;8.712;2023-05-14T14:08:56;22.90;80.60
41678;DHT22;27364;49.026;8.712;2023-05-14T14:11:21;22.40;81.50
41678;DHT22;27364;49.026;8.712;2023-05-14T14:13:47;22.10;82.20
41678;DHT22;27364;49.026;8.712;2023-05-14T14:16:13;22.30;83.30
41678;DHT22;27364;49.026;8.712;2023-05-14T14:18:38;22.80;84.10
41678;DHT22;27364;49.026;8.712;2023-05-14T14:21:04;23.30;83.00
41678;DHT22;27364;49.026;8.712;2023-05-14T14:23:29;23.40;79.60
41678;DHT22;27364;49.026;8.712;2023-05-14T14:25:56;23.70;78.90
41678;DHT22;27364;49.026;8.712;2023-05-14T14:28:22;24.10;77.80
41678;DHT22;27364;49.026;8.712;2023-05-14T14:30:47;24.10;76.70
41678;DHT22;27364;49.026;8.712;2023-05-14T14:33:13;23.70;74.80
41678;DHT22;27364;49.026;8.712;2023-05-14T14:35:38;23.30;74.30
41678;DHT22;27364;49.026;8.712;2023-05-14T14:38:04;23.40;76.20
41678;DHT22;27364;49.026;8.712;2023-05-14T14:40:32;23.70;77.70
41678;DHT22;27364;49.026;8.712;2023-05-14T14:42:57;23.60;74.20
41678;DHT22;27364;49.026;8.712;2023-05-14T14:45:23;23.80;73.60
41678;DHT22;27364;49.026;8.712;2023-05-14T14:47:48;24.00;74.40
41678;DHT22;27364;49.026;8.712;2023-05-14T14:50:14;24.00;72.00
41678;DHT22;27364;49.026;8.712;2023-05-14T14:52:40;24.10;69.50
41678;DHT22;27364;49.026;8.712;2023-05-14T14:55:08;24.10;70.80
41678;DHT22;27364;49.026;8.712;2023-05-14T14:57:34;24.40;69.30
41678;DHT22;27364;49.026;8.712;2023-05-14T15:00:00;24.10;69.60
41678;DHT22;27364;49.026;8.712;2023-05-14T15:02:25;24.30;70.20
41678;DHT22;27364;49.026;8.712;2023-05-14T15:04:53;24.20;70.20
41678;DHT22;27364;49.026;8.712;2023-05-14T15:07:19;24.10;69.40
41678;DHT22;27364;49.026;8.712;2023-05-14T15:09:46;23.90;67.20
41678;DHT22;27364;49.026;8.712;2023-05-14T15:12:11;23.80;70.70
41678;DHT22;27364;49.026;8.712;2023-05-14T15:14:38;23.50;69.50
41678;DHT22;27364;49.026;8.712;2023-05-14T15:17:04;23.20;69.70
41678;DHT22;27364;49.026;8.712;2023-05-14T15:19:29;22.90;74.20
41678;DHT22;27364;49.026;8.712;2023-05-14T15:21:56;22.80;74.60
41678;DHT22;27364;49.026;8.712;2023-05-14T15:24:22;22.30;72.80
41678;DHT22;27364;49.026;8.712;2023-05-14T15:26:49;21.90;72.80
41678;DHT22;27364;49.026;8.712;2023-05-14T15:29:15;21.60;74.70
41678;DHT22;27364;49.026;8.712;2023-05-14T15:31:40;21.30;75.40
41678;DHT22;27364;49.026;8.712;2023-05-14T15:34:06;21.30;79.30
41678;DHT22;27364;49.026;8.712;2023-05-14T15:36:31;21.20;76.40